»·PEaware :: N530RC KSBP-KSMX

N530RC :: KSBP-KSMX

FLIGHT INFORMATION

Flight Status: Arrived
Operator: Privately registered:
United States
More flights under this callsign
Pilot: Louis L. (20588)
Aircraft: CESSNA 152 AEROBAT
(C152)
More flights by this aircraft type
Origin: KSBP San Luis Co Regl
United States
Destination: KSMX Santa Maria Pub/Capt Hancock
United States
More flights between these airports :: More routes between these airports
Route: +
File this flight plan on PilotEdge
Remarks:
Altitude:
(Current/Filed)
3,500ft
Speed:
(Current/Filed)
85kts
Departed: 11-Oct-18 05:28 PM
Arrived: 11-Oct-18 06:05 PM
Distance/Time
Traveled:
22nm/0:37
Distance/Time
To Go:
Arrived

Flight Plot

Page will automatically refresh every two minutes.


Map Options




Map Legend


Flown Route
Filed Route
Departure Airport
Arrival Airport
Navaid (VOR, NDB)
Fix

Horizontal Profiles

Position Reports

Time Latitude Longitude Heading Altitude Ground
Speed
11-Oct-18 17:18 35.238591 -120.638077 269 197ft 0kts
11-Oct-18 17:19 35.238591 -120.638077 269 197ft 0kts
11-Oct-18 17:20 35.238591 -120.638077 269 197ft 0kts
11-Oct-18 17:21 35.238591 -120.638077 269 197ft 0kts
11-Oct-18 17:22 35.238591 -120.638106 268 197ft 3kts
11-Oct-18 17:23 35.237380 -120.637964 126 198ft 12kts
11-Oct-18 17:24 35.235842 -120.636479 125 204ft 28kts
11-Oct-18 17:25 35.233738 -120.632774 124 211ft 30kts
11-Oct-18 17:26 35.233195 -120.632337 183 211ft 0kts
11-Oct-18 17:27 35.233195 -120.632337 183 211ft 0kts
11-Oct-18 17:28 35.233195 -120.632337 183 211ft 0kts
11-Oct-18 17:29 35.233195 -120.632337 183 211ft 0kts
11-Oct-18 17:30 35.234405 -120.635888 303 221ft 64kts
11-Oct-18 17:31 35.239757 -120.644589 305 766ft 57kts
11-Oct-18 17:32 35.238559 -120.653298 223 1242ft 68kts
11-Oct-18 17:33 35.230402 -120.662357 220 1798ft 73kts
11-Oct-18 17:34 35.220988 -120.669623 207 2389ft 70kts
11-Oct-18 17:35 35.209774 -120.677398 212 2383ft 91kts
11-Oct-18 17:36 35.198078 -120.685430 212 2433ft 80kts
11-Oct-18 17:37 35.186897 -120.693580 210 2360ft 87kts
11-Oct-18 17:38 35.175205 -120.695895 159 2470ft 79kts
11-Oct-18 17:39 35.162456 -120.689743 159 2707ft 97kts
11-Oct-18 17:40 35.149501 -120.681316 152 2957ft 105kts
11-Oct-18 17:41 35.135342 -120.670925 150 2104ft 110kts
11-Oct-18 17:42 35.121994 -120.661802 150 1624ft 94kts
11-Oct-18 17:43 35.110570 -120.651405 142 1633ft 98kts
11-Oct-18 17:44 35.101415 -120.642918 142 1575ft 100kts
11-Oct-18 17:45 35.089112 -120.630241 142 1627ft 94kts
11-Oct-18 17:46 35.082675 -120.623150 133 1598ft 97kts
11-Oct-18 17:47 35.072769 -120.609469 137 1669ft 92kts
11-Oct-18 17:48 35.064170 -120.601800 147 1738ft 89kts
11-Oct-18 17:49 35.049871 -120.591306 153 1532ft 104kts
11-Oct-18 17:50 35.038783 -120.584751 156 1397ft 101kts
11-Oct-18 17:51 35.024413 -120.576666 155 1398ft 95kts
11-Oct-18 17:52 35.012096 -120.569049 155 1359ft 92kts
11-Oct-18 17:53 35.003343 -120.561964 145 1312ft 85kts
11-Oct-18 17:54 34.989613 -120.552456 154 1377ft 103kts
11-Oct-18 17:55 34.979157 -120.545806 149 1500ft 98kts
11-Oct-18 17:56 34.968091 -120.537768 151 1325ft 101kts
11-Oct-18 17:57 34.957100 -120.528632 142 1268ft 93kts
11-Oct-18 17:58 34.946474 -120.517316 136 1099ft 94kts
11-Oct-18 17:59 34.934315 -120.509590 184 1264ft 102kts
11-Oct-18 18:00 34.918672 -120.507510 166 1292ft 110kts
11-Oct-18 18:01 34.906255 -120.497998 133 1328ft 102kts
11-Oct-18 18:02 34.899134 -120.484075 117 1327ft 102kts
11-Oct-18 18:03 34.896859 -120.467349 84 991ft 100kts
11-Oct-18 18:04 34.889966 -120.453268 134 814ft 89kts
11-Oct-18 18:05 34.886009 -120.441419 29 731ft 64kts
11-Oct-18 18:06 34.892060 -120.444906 312 346ft 59kts
11-Oct-18 18:07 34.896620 -120.449981 351 264ft 23kts
11-Oct-18 18:08 34.898252 -120.449956 36 264ft 16kts
11-Oct-18 18:09 34.898699 -120.448248 80 264ft 0kts

Navigation Log

Ident Type
Flight plan parsing failed, navigation log unavailable